createdAt,value
2023-05-02T00:02:03.528Z,17.91
2023-05-02T00:04:31.357Z,17.70
2023-05-02T00:06:58.649Z,17.13
2023-05-02T00:09:26.811Z,17.64
2023-05-02T00:11:53.988Z,17.95
2023-05-02T00:14:22.588Z,17.63
2023-05-02T00:16:49.671Z,17.58
2023-05-02T00:19:16.784Z,17.57
2023-05-02T00:21:43.865Z,19.31
2023-05-02T00:24:11.014Z,17.71
2023-05-02T00:26:38.262Z,17.90
2023-05-02T00:29:05.330Z,17.65
2023-05-02T00:31:34.692Z,18.13
2023-05-02T00:34:02.306Z,17.38
2023-05-02T00:36:29.340Z,18.02
2023-05-02T00:38:56.704Z,17.29
2023-05-02T00:41:23.787Z,18.19
2023-05-02T00:43:50.978Z,19.00
2023-05-02T00:46:18.226Z,18.12
2023-05-02T00:48:47.105Z,18.34
2023-05-02T00:51:14.400Z,18.67
2023-05-02T00:53:41.572Z,18.04
2023-05-02T00:56:08.856Z,17.59
2023-05-02T00:58:36.435Z,17.82
2023-05-02T01:01:09.753Z,18.16
2023-05-02T01:03:42.119Z,18.21
2023-05-02T01:06:19.846Z,17.92
2023-05-02T01:08:50.592Z,18.56
2023-05-02T01:11:23.863Z,18.57
2023-05-02T01:13:53.819Z,18.44
2023-05-02T01:16:22.518Z,19.32
2023-05-02T01:18:50.502Z,18.42
2023-05-02T01:21:19.275Z,18.97
2023-05-02T01:23:51.959Z,18.48
2023-05-02T01:26:24.658Z,17.86
2023-05-02T01:29:00.876Z,18.95
2023-05-02T01:31:31.070Z,18.52
2023-05-02T01:33:59.062Z,18.91
2023-05-02T01:36:28.409Z,18.13
2023-05-02T01:38:55.844Z,18.58
2023-05-02T01:41:25.286Z,19.50
2023-05-02T01:43:54.254Z,18.28
2023-05-02T01:46:24.072Z,17.82
2023-05-02T01:48:52.766Z,19.43
2023-05-02T01:51:21.800Z,20.12
2023-05-02T01:53:49.661Z,19.57
2023-05-02T01:56:18.881Z,19.74
2023-05-02T01:58:47.245Z,18.71
2023-05-02T02:01:15.144Z,19.34
2023-05-02T02:03:45.026Z,20.08
2023-05-02T02:06:12.576Z,19.27
2023-05-02T02:08:39.689Z,19.85
2023-05-02T02:11:09.484Z,18.26
2023-05-02T02:13:39.807Z,18.72
2023-05-02T02:16:09.545Z,18.33
2023-05-02T02:18:39.170Z,19.00
2023-05-02T02:21:09.499Z,18.88
2023-05-02T02:23:36.995Z,18.37
2023-05-02T02:26:05.124Z,19.19
2023-05-02T02:28:32.258Z,19.13
2023-05-02T02:30:59.954Z,18.66
2023-05-02T02:33:29.971Z,18.36
2023-05-02T02:36:01.781Z,18.18
2023-05-02T02:38:38.250Z,17.96
2023-05-02T02:41:12.491Z,19.82
2023-05-02T02:43:41.711Z,17.90
2023-05-02T02:46:14.709Z,19.82
2023-05-02T02:48:48.834Z,19.07
2023-05-02T02:51:23.356Z,17.95
2023-05-02T02:53:57.971Z,18.15
2023-05-02T02:56:28.102Z,17.79
2023-05-02T02:58:57.908Z,18.20
2023-05-02T03:01:27.355Z,18.06
2023-05-02T03:03:55.434Z,18.29
2023-05-02T03:06:23.019Z,18.48
2023-05-02T03:08:54.013Z,19.65
2023-05-02T03:11:29.480Z,18.55
2023-05-02T03:13:58.220Z,19.49
2023-05-02T03:16:36.597Z,18.83
2023-05-02T03:19:06.917Z,19.12
2023-05-02T03:21:35.084Z,18.73
2023-05-02T03:24:11.307Z,18.14
2023-05-02T03:26:38.960Z,19.94
2023-05-02T03:29:09.242Z,21.00
2023-05-02T03:31:40.404Z,21.15
2023-05-02T03:34:07.587Z,20.88
2023-05-02T03:36:36.226Z,21.51
2023-05-02T03:39:03.580Z,21.61
2023-05-02T03:41:32.217Z,21.39
2023-05-02T03:44:06.696Z,21.50
2023-05-02T03:46:34.438Z,22.20
2023-05-02T03:49:04.965Z,21.63
2023-05-02T03:51:32.553Z,21.34
2023-05-02T03:54:00.698Z,21.31
2023-05-02T03:56:28.153Z,21.65
2023-05-02T03:59:17.636Z,20.82
2023-05-02T04:01:45.407Z,20.64
2023-05-02T04:04:14.645Z,21.61
2023-05-02T04:06:47.530Z,21.19
2023-05-02T04:09:16.490Z,21.13
2023-05-02T04:11:52.244Z,22.07
2023-05-02T04:14:21.757Z,21.35
2023-05-02T04:16:51.477Z,22.25
2023-05-02T04:19:26.704Z,22.68
2023-05-02T04:21:54.133Z,22.37
2023-05-02T04:24:21.586Z,22.30
2023-05-02T04:26:48.775Z,21.66
2023-05-02T04:29:15.877Z,21.74
2023-05-02T04:31:45.497Z,22.57
2023-05-02T04:34:15.107Z,22.58
2023-05-02T04:36:45.537Z,22.43
2023-05-02T04:39:15.895Z,22.58
2023-05-02T04:41:51.494Z,22.24
2023-05-02T04:44:19.899Z,22.15
2023-05-02T04:46:48.895Z,22.51
2023-05-02T04:49:16.161Z,22.75
2023-05-02T04:51:45.462Z,24.04
2023-05-02T04:54:14.467Z,23.63
2023-05-02T04:56:43.293Z,22.90
2023-05-02T04:59:10.997Z,23.13
2023-05-02T05:01:38.376Z,22.69
2023-05-02T05:04:08.802Z,22.81
2023-05-02T05:06:36.543Z,22.45
2023-05-02T05:09:04.521Z,22.95
2023-05-02T05:11:33.898Z,23.04
2023-05-02T05:14:02.332Z,22.50
2023-05-02T05:16:29.651Z,22.52
2023-05-02T05:18:58.124Z,22.27
2023-05-02T05:21:26.878Z,22.97
2023-05-02T05:23:56.227Z,22.56
2023-05-02T05:26:28.213Z,22.56
2023-05-02T05:28:55.673Z,22.71
2023-05-02T05:31:25.795Z,22.71
2023-05-02T05:33:56.876Z,22.66
2023-05-02T05:36:26.856Z,22.54
2023-05-02T05:38:54.012Z,22.19
2023-05-02T05:41:22.297Z,22.36
2023-05-02T05:43:55.085Z,22.56
2023-05-02T05:46:24.455Z,22.57
2023-05-02T05:48:51.953Z,22.88
2023-05-02T05:51:19.189Z,23.04
2023-05-02T05:53:49.630Z,22.99
2023-05-02T05:56:17.294Z,22.88
2023-05-02T05:58:52.973Z,23.46
2023-05-02T06:01:20.739Z,22.72
2023-05-02T06:03:48.786Z,23.12
2023-05-02T06:06:17.836Z,22.50
2023-05-02T06:08:45.029Z,22.98
2023-05-02T06:11:13.630Z,22.65
2023-05-02T06:13:40.860Z,23.18
2023-05-02T06:16:08.696Z,23.30
2023-05-02T06:18:35.803Z,23.40
2023-05-02T06:21:06.307Z,22.48
2023-05-02T06:23:33.578Z,22.63
2023-05-02T06:26:01.317Z,22.68
2023-05-02T06:28:30.172Z,22.96
2023-05-02T06:30:57.954Z,22.93
2023-05-02T06:33:25.065Z,22.75
2023-05-02T06:35:52.821Z,21.85
2023-05-02T06:38:20.075Z,23.07
2023-05-02T06:40:48.058Z,23.28
2023-05-02T06:43:15.430Z,23.37
2023-05-02T06:45:44.014Z,23.35
2023-05-02T06:48:11.168Z,23.75
2023-05-02T06:50:38.397Z,23.99
2023-05-02T06:53:07.595Z,23.73
2023-05-02T06:55:35.818Z,24.25
2023-05-02T06:58:03.388Z,24.13
2023-05-02T07:00:30.598Z,23.60
2023-05-02T07:02:59.328Z,23.65
2023-05-02T07:05:27.280Z,25.25
2023-05-02T07:07:54.418Z,23.60
2023-05-02T07:10:21.879Z,24.18
2023-05-02T07:12:49.062Z,23.56
2023-05-02T07:15:16.171Z,23.93
2023-05-02T07:17:43.356Z,23.49
2023-05-02T07:20:12.318Z,23.92
2023-05-02T07:22:39.432Z,23.94
2023-05-02T07:25:07.381Z,23.67
2023-05-02T07:27:34.436Z,24.70
2023-05-02T07:30:03.446Z,22.68
2023-05-02T07:32:31.923Z,24.00
2023-05-02T07:34:59.796Z,23.65
2023-05-02T07:37:34.224Z,23.57
2023-05-02T07:40:02.505Z,23.96
2023-05-02T07:42:30.504Z,24.32
2023-05-02T07:44:58.526Z,23.64
2023-05-02T07:47:25.800Z,22.76
2023-05-02T07:49:53.254Z,22.64
2023-05-02T07:52:20.701Z,23.00
2023-05-02T07:54:49.716Z,23.37
2023-05-02T07:57:16.859Z,23.78
2023-05-02T07:59:44.214Z,25.93
2023-05-02T08:02:12.701Z,24.37
2023-05-02T08:04:40.407Z,23.94
2023-05-02T08:07:08.156Z,22.57
2023-05-02T08:09:35.344Z,22.50
2023-05-02T08:12:04.032Z,24.14
2023-05-02T08:14:31.397Z,22.10
2023-05-02T08:16:58.918Z,22.07
2023-05-02T08:19:26.088Z,22.72
2023-05-02T08:21:54.008Z,22.73
2023-05-02T08:24:21.389Z,22.05
2023-05-02T08:26:48.455Z,23.07
2023-05-02T08:29:17.036Z,23.04
2023-05-02T08:31:44.165Z,21.87
2023-05-02T08:34:11.374Z,22.33
2023-05-02T08:36:38.690Z,23.69
2023-05-02T08:39:05.769Z,22.77
2023-05-02T08:41:32.836Z,23.10
2023-05-02T08:44:00.071Z,23.69
2023-05-02T08:46:28.810Z,22.60
2023-05-02T08:48:56.010Z,24.86
2023-05-02T08:51:25.051Z,23.82
2023-05-02T08:53:52.705Z,23.19
2023-05-02T08:56:20.030Z,24.17
2023-05-02T08:58:47.196Z,23.84
2023-05-02T09:01:15.860Z,23.60
2023-05-02T09:03:45.712Z,24.32
2023-05-02T09:06:13.837Z,23.93
2023-05-02T09:08:41.915Z,24.24
2023-05-02T09:11:09.798Z,24.32
2023-05-02T09:13:37.603Z,24.35
2023-05-02T09:16:06.349Z,24.49
2023-05-02T09:18:34.244Z,25.51
2023-05-02T09:21:05.034Z,24.85
2023-05-02T09:23:32.870Z,24.87
2023-05-02T09:26:01.421Z,24.71
2023-05-02T09:28:38.953Z,23.17
2023-05-02T09:31:07.401Z,23.37
2023-05-02T09:33:34.658Z,24.09
2023-05-02T09:36:03.302Z,23.21
2023-05-02T09:38:30.487Z,23.26
2023-05-02T09:40:57.549Z,23.71
2023-05-02T09:43:26.440Z,23.07
2023-05-02T09:46:03.512Z,22.92
2023-05-02T09:48:31.214Z,23.91
2023-05-02T09:50:58.458Z,23.36
2023-05-02T09:53:28.210Z,23.62
2023-05-02T09:56:03.110Z,23.02
2023-05-02T09:58:31.104Z,23.42
2023-05-02T10:00:58.863Z,23.17
2023-05-02T10:03:27.607Z,23.59
2023-05-02T10:05:55.330Z,22.98
2023-05-02T10:08:22.946Z,23.01
2023-05-02T10:10:53.412Z,25.46
2023-05-02T10:13:21.221Z,24.99
2023-05-02T10:15:50.113Z,23.85
2023-05-02T10:18:22.002Z,22.99
2023-05-02T10:20:56.521Z,23.21
2023-05-02T10:23:26.013Z,23.42
2023-05-02T10:25:55.623Z,23.43
2023-05-02T10:28:23.704Z,23.20
2023-05-02T10:30:50.875Z,23.09
2023-05-02T10:33:18.278Z,23.07
2023-05-02T10:35:46.050Z,22.64
2023-05-02T10:38:14.237Z,22.62
2023-05-02T10:40:42.310Z,22.89
2023-05-02T10:43:14.093Z,21.91
2023-05-02T10:45:41.326Z,22.46
2023-05-02T10:48:15.221Z,23.74
2023-05-02T10:50:46.100Z,22.43
2023-05-02T10:53:26.828Z,22.97
2023-05-02T10:56:13.755Z,23.33
2023-05-02T10:58:43.084Z,23.57
2023-05-02T11:01:29.394Z,22.79
2023-05-02T11:03:57.062Z,23.44
2023-05-02T11:06:24.415Z,23.39
2023-05-02T11:08:51.594Z,23.17
2023-05-02T11:11:37.773Z,21.76
2023-05-02T11:14:07.187Z,22.61
2023-05-02T11:16:52.677Z,22.59
2023-05-02T11:19:19.957Z,23.00
2023-05-02T11:21:47.032Z,22.78
2023-05-02T11:24:32.339Z,23.19
2023-05-02T11:27:14.326Z,22.85
2023-05-02T11:29:55.494Z,22.76
2023-05-02T11:32:23.138Z,22.80
2023-05-02T11:34:50.497Z,22.94
2023-05-02T11:37:17.661Z,21.58
2023-05-02T11:39:45.016Z,22.37
2023-05-02T11:42:28.139Z,21.85
2023-05-02T11:44:58.596Z,22.96
2023-05-02T11:47:26.614Z,21.85
2023-05-02T11:49:54.878Z,21.57
2023-05-02T11:52:22.077Z,22.26
2023-05-02T11:54:49.640Z,21.63
2023-05-02T11:57:16.726Z,22.48
2023-05-02T11:59:50.597Z,22.55
2023-05-02T12:02:20.616Z,22.17
2023-05-02T12:04:47.710Z,21.63
2023-05-02T12:07:14.874Z,22.53
2023-05-02T12:09:51.298Z,21.76
2023-05-02T12:12:19.986Z,20.84
2023-05-02T12:14:47.587Z,21.28
2023-05-02T12:17:14.877Z,21.92
2023-05-02T12:19:43.660Z,20.99
2023-05-02T12:22:11.229Z,21.10
2023-05-02T12:24:39.031Z,20.75
2023-05-02T12:27:09.754Z,20.78
2023-05-02T12:29:40.558Z,20.35
2023-05-02T12:32:07.996Z,21.37
2023-05-02T12:34:35.505Z,20.62
2023-05-02T12:37:04.611Z,19.66
2023-05-02T12:39:36.064Z,19.77
2023-05-02T12:42:10.105Z,20.49
2023-05-02T12:44:37.853Z,20.17
2023-05-02T12:47:05.048Z,20.46
2023-05-02T12:49:32.148Z,21.30
2023-05-02T12:51:59.459Z,20.54
2023-05-02T12:54:28.019Z,20.10
2023-05-02T12:56:55.129Z,20.80
2023-05-02T12:59:28.233Z,20.20
2023-05-02T13:01:55.278Z,19.88
2023-05-02T13:04:22.587Z,19.97
2023-05-02T13:06:49.896Z,19.65
2023-05-02T13:09:16.985Z,20.27
2023-05-02T13:11:46.182Z,20.57
2023-05-02T13:14:13.336Z,19.71
2023-05-02T13:16:40.515Z,20.95
2023-05-02T13:19:07.741Z,20.11
2023-05-02T13:21:34.849Z,20.45
2023-05-02T13:24:02.028Z,20.26
2023-05-02T13:26:29.391Z,21.32
2023-05-02T13:28:57.915Z,21.13
2023-05-02T13:31:25.186Z,20.37
2023-05-02T13:33:52.394Z,20.95
2023-05-02T13:36:19.503Z,20.60
2023-05-02T13:38:46.922Z,20.46
2023-05-02T13:41:14.004Z,20.89
2023-05-02T13:43:41.366Z,21.16
2023-05-02T13:46:10.224Z,20.95
2023-05-02T13:48:37.396Z,20.34
2023-05-02T13:51:05.135Z,20.61
2023-05-02T13:53:33.162Z,21.07
2023-05-02T13:56:00.406Z,20.29
2023-05-02T13:58:27.565Z,21.17
2023-05-02T14:00:54.682Z,20.41
2023-05-02T14:03:24.019Z,20.83
2023-05-02T14:05:51.406Z,20.33
2023-05-02T14:08:18.596Z,20.20
2023-05-02T14:10:45.698Z,20.50
2023-05-02T14:13:12.841Z,20.92
2023-05-02T14:15:40.188Z,21.16
2023-05-02T14:18:07.441Z,20.13
2023-05-02T14:20:36.359Z,20.56
2023-05-02T14:23:05.214Z,21.68
2023-05-02T14:25:33.321Z,19.88
2023-05-02T14:28:00.480Z,20.88
2023-05-02T14:30:27.648Z,21.12
2023-05-02T14:32:54.856Z,21.21
2023-05-02T14:35:22.163Z,20.40
2023-05-02T14:37:50.657Z,20.69
2023-05-02T14:40:17.871Z,21.05
2023-05-02T14:42:44.985Z,21.34
2023-05-02T14:45:12.784Z,21.45
2023-05-02T14:47:39.932Z,21.61
2023-05-02T14:50:07.753Z,21.23
2023-05-02T14:52:35.125Z,20.83
2023-05-02T14:55:04.901Z,21.24
2023-05-02T14:57:32.796Z,20.49
2023-05-02T15:00:00.205Z,19.68
2023-05-02T15:02:27.593Z,22.21
2023-05-02T15:04:54.921Z,21.03
2023-05-02T15:07:22.696Z,21.81
2023-05-02T15:09:50.365Z,20.71
2023-05-02T15:12:20.616Z,20.73
2023-05-02T15:14:48.197Z,21.70
2023-05-02T15:17:15.662Z,21.87
2023-05-02T15:19:43.322Z,20.79
2023-05-02T15:22:10.404Z,19.98
2023-05-02T15:24:37.774Z,21.04
2023-05-02T15:27:04.967Z,21.22
2023-05-02T15:29:34.164Z,20.33
2023-05-02T15:32:01.483Z,21.73
2023-05-02T15:34:29.485Z,21.58
2023-05-02T15:36:59.761Z,21.03
2023-05-02T15:39:27.467Z,21.48
2023-05-02T15:41:54.690Z,20.18
2023-05-02T15:44:22.838Z,20.98
2023-05-02T15:46:52.584Z,20.60
2023-05-02T15:49:20.402Z,21.13
2023-05-02T15:51:47.559Z,20.43
2023-05-02T15:54:15.146Z,21.04
2023-05-02T15:56:42.739Z,20.33
2023-05-02T15:59:10.305Z,21.43
2023-05-02T16:01:38.070Z,21.66
2023-05-02T16:04:07.191Z,20.81
2023-05-02T16:06:35.092Z,21.08
2023-05-02T16:09:03.617Z,21.78
2023-05-02T16:11:30.957Z,20.56
2023-05-02T16:13:59.387Z,20.59
2023-05-02T16:16:28.039Z,21.56
2023-05-02T16:18:55.678Z,21.39
2023-05-02T16:21:24.437Z,21.13
2023-05-02T16:23:52.051Z,20.42
2023-05-02T16:26:19.781Z,21.19
2023-05-02T16:28:47.476Z,21.00
2023-05-02T16:31:15.259Z,22.09
2023-05-02T16:33:43.177Z,20.66
2023-05-02T16:36:10.350Z,20.45
2023-05-02T16:38:39.658Z,20.68
2023-05-02T16:41:07.965Z,22.65
2023-05-02T16:43:35.509Z,22.88
2023-05-02T16:46:03.938Z,22.16
2023-05-02T16:48:32.926Z,23.15
2023-05-02T16:51:01.083Z,23.15
2023-05-02T16:53:29.878Z,20.91
2023-05-02T16:55:59.160Z,21.30
2023-05-02T16:58:27.609Z,20.48
2023-05-02T17:00:55.540Z,20.20
2023-05-02T17:03:24.214Z,20.75
2023-05-02T17:05:51.967Z,22.91
2023-05-02T17:08:20.173Z,23.06
2023-05-02T17:10:48.498Z,20.84
2023-05-02T17:13:17.618Z,21.25
2023-05-02T17:15:45.015Z,23.02
2023-05-02T17:18:12.247Z,22.78
2023-05-02T17:20:40.018Z,21.20
2023-05-02T17:23:08.004Z,22.29
2023-05-02T17:25:35.915Z,21.94
2023-05-02T17:28:03.710Z,23.65
2023-05-02T17:30:32.739Z,23.60
2023-05-02T17:33:00.272Z,23.70
2023-05-02T17:35:27.756Z,24.01
2023-05-02T17:37:54.908Z,23.36
2023-05-02T17:40:22.460Z,23.69
2023-05-02T17:42:49.805Z,23.90
2023-05-02T17:45:16.894Z,24.07
2023-05-02T17:47:46.119Z,22.87
2023-05-02T17:50:13.285Z,24.27
2023-05-02T17:52:40.834Z,23.49
2023-05-02T17:55:09.240Z,22.91
2023-05-02T17:57:36.800Z,23.14
2023-05-02T18:00:04.605Z,23.21
2023-05-02T18:02:32.949Z,23.91
2023-05-02T18:05:02.989Z,24.21
2023-05-02T18:07:30.317Z,22.95
2023-05-02T18:09:57.618Z,23.65
2023-05-02T18:12:24.977Z,23.48
2023-05-02T18:14:52.278Z,23.92
2023-05-02T18:17:19.891Z,22.98
2023-05-02T18:19:47.614Z,23.62
2023-05-02T18:22:18.545Z,24.00
2023-05-02T18:24:46.974Z,23.64
2023-05-02T18:27:14.175Z,23.29
2023-05-02T18:29:41.826Z,23.87
2023-05-02T18:32:09.261Z,23.83
2023-05-02T18:34:38.781Z,23.54
2023-05-02T18:37:06.574Z,24.01
2023-05-02T18:39:35.256Z,24.34
2023-05-02T18:42:03.376Z,24.32
2023-05-02T18:44:30.504Z,23.77
2023-05-02T18:46:58.081Z,24.27
2023-05-02T18:49:25.346Z,24.39
2023-05-02T18:51:53.528Z,24.77
2023-05-02T18:54:20.810Z,24.37
2023-05-02T18:56:49.371Z,24.14
2023-05-02T18:59:16.646Z,24.24
2023-05-02T19:01:45.686Z,24.38
2023-05-02T19:04:12.837Z,24.38
2023-05-02T19:06:40.010Z,24.42
2023-05-02T19:09:07.117Z,24.01
2023-05-02T19:11:34.494Z,24.47
2023-05-02T19:14:03.115Z,24.58
2023-05-02T19:16:30.612Z,24.04
2023-05-02T19:18:58.026Z,24.76
2023-05-02T19:21:25.088Z,24.18
2023-05-02T19:23:52.290Z,24.30
2023-05-02T19:26:19.502Z,24.65
2023-05-02T19:28:46.609Z,24.12
2023-05-02T19:31:16.110Z,24.10
2023-05-02T19:33:43.421Z,24.22
2023-05-02T19:36:10.634Z,24.55
2023-05-02T19:38:37.717Z,24.25
2023-05-02T19:41:04.973Z,24.54
2023-05-02T19:43:32.727Z,23.95
2023-05-02T19:45:59.891Z,24.54
2023-05-02T19:48:28.540Z,22.92
2023-05-02T19:50:55.802Z,22.20
2023-05-02T19:53:23.020Z,21.66
2023-05-02T19:55:50.113Z,21.39
2023-05-02T19:58:17.277Z,21.70
2023-05-02T20:00:44.461Z,21.95
2023-05-02T20:03:11.664Z,22.13
2023-05-02T20:05:40.219Z,21.14
2023-05-02T20:08:07.430Z,20.97
2023-05-02T20:10:35.961Z,20.96
2023-05-02T20:13:03.169Z,21.05
2023-05-02T20:15:30.185Z,21.11
2023-05-02T20:17:57.381Z,20.91
2023-05-02T20:20:24.555Z,21.69
2023-05-02T20:22:53.119Z,20.95
2023-05-02T20:25:20.709Z,20.88
2023-05-02T20:27:47.927Z,21.33
2023-05-02T20:30:15.070Z,20.90
2023-05-02T20:32:42.268Z,20.78
2023-05-02T20:35:09.925Z,21.36
2023-05-02T20:37:37.523Z,20.98
2023-05-02T20:40:07.178Z,20.99
2023-05-02T20:42:34.382Z,21.48
2023-05-02T20:45:01.959Z,20.82
2023-05-02T20:47:30.135Z,21.55
2023-05-02T20:49:57.312Z,20.61
2023-05-02T20:52:25.032Z,20.75
2023-05-02T20:54:53.676Z,20.76
2023-05-02T20:57:22.555Z,21.39
2023-05-02T20:59:49.691Z,21.61
2023-05-02T21:02:16.782Z,21.51
2023-05-02T21:04:43.896Z,21.61
2023-05-02T21:07:11.550Z,20.68
2023-05-02T21:09:38.671Z,20.75
2023-05-02T21:12:06.087Z,21.40
2023-05-02T21:14:34.638Z,20.78
2023-05-02T21:17:01.723Z,21.16
2023-05-02T21:19:28.853Z,20.86
2023-05-02T21:21:55.975Z,20.82
2023-05-02T21:24:23.128Z,20.79
2023-05-02T21:26:50.180Z,21.48
2023-05-02T21:29:17.449Z,21.32
2023-05-02T21:31:46.407Z,20.82
2023-05-02T21:34:13.698Z,21.13
2023-05-02T21:36:40.864Z,21.59
2023-05-02T21:39:08.048Z,21.57
2023-05-02T21:41:35.172Z,20.80
2023-05-02T21:44:02.797Z,21.50
2023-05-02T21:46:29.922Z,21.57
2023-05-02T21:48:58.507Z,21.20
2023-05-02T21:51:26.057Z,20.77
2023-05-02T21:53:53.233Z,21.61
2023-05-02T21:56:20.394Z,21.13
2023-05-02T21:58:47.631Z,21.57
2023-05-02T22:01:14.720Z,21.09
2023-05-02T22:03:42.240Z,20.82
2023-05-02T22:06:10.928Z,21.10
2023-05-02T22:08:38.083Z,20.86
2023-05-02T22:11:05.482Z,21.13
2023-05-02T22:13:32.546Z,21.00
2023-05-02T22:15:59.659Z,20.86
2023-05-02T22:18:26.940Z,21.08
2023-05-02T22:20:53.976Z,21.35
2023-05-02T22:23:22.863Z,21.14
2023-05-02T22:25:50.021Z,21.21
2023-05-02T22:28:17.132Z,21.67
2023-05-02T22:30:44.211Z,21.02
2023-05-02T22:33:12.206Z,21.11
2023-05-02T22:35:39.687Z,21.77
2023-05-02T22:38:06.914Z,21.06
2023-05-02T22:40:35.471Z,21.17
2023-05-02T22:43:02.569Z,21.41
2023-05-02T22:45:30.377Z,21.80
2023-05-02T22:47:57.417Z,21.64
2023-05-02T22:50:24.544Z,20.79
2023-05-02T22:52:51.935Z,20.91
2023-05-02T22:55:19.306Z,21.46
2023-05-02T22:57:47.869Z,20.94
2023-05-02T23:00:15.143Z,21.52
2023-05-02T23:02:42.324Z,21.50
2023-05-02T23:05:09.640Z,21.28
2023-05-02T23:07:37.397Z,21.04
2023-05-02T23:10:05.194Z,21.38
2023-05-02T23:12:32.527Z,21.13
2023-05-02T23:15:01.671Z,21.05
2023-05-02T23:17:28.836Z,20.90
2023-05-02T23:19:57.006Z,21.50
2023-05-02T23:22:24.077Z,21.83
2023-05-02T23:24:51.323Z,22.13
2023-05-02T23:27:19.075Z,21.29
2023-05-02T23:29:46.101Z,21.71
2023-05-02T23:32:14.638Z,21.46
2023-05-02T23:34:41.814Z,21.45
2023-05-02T23:37:09.117Z,21.99
2023-05-02T23:39:36.266Z,22.02
2023-05-02T23:42:03.346Z,21.57
2023-05-02T23:44:30.591Z,21.42
2023-05-02T23:46:58.348Z,21.48
2023-05-02T23:49:27.090Z,21.66
2023-05-02T23:51:54.800Z,22.41
2023-05-02T23:54:21.993Z,22.33
2023-05-02T23:56:49.090Z,21.72
2023-05-02T23:59:16.181Z,21.66
